createdAt,value
2019-03-13T00:03:45.784Z,17.67
2019-03-13T00:07:56.728Z,11.83
2019-03-13T00:12:07.090Z,8.27
2019-03-13T00:16:16.853Z,12.70
2019-03-13T00:20:29.076Z,8.37
2019-03-13T00:24:39.432Z,11.20
2019-03-13T00:28:50.188Z,10.60
2019-03-13T00:33:01.305Z,13.47
2019-03-13T00:37:11.223Z,12.80
2019-03-13T00:41:21.123Z,13.77
2019-03-13T00:45:31.860Z,9.80
2019-03-13T00:49:42.223Z,10.03
2019-03-13T00:53:53.323Z,11.60
2019-03-13T00:58:04.266Z,10.10
2019-03-13T01:02:39.755Z,19.03
2019-03-13T01:06:57.314Z,14.80
2019-03-13T01:11:08.482Z,17.00
2019-03-13T01:15:18.546Z,15.53
2019-03-13T01:19:29.387Z,14.40
2019-03-13T01:23:39.611Z,15.80
2019-03-13T01:27:50.571Z,14.37
2019-03-13T01:32:36.727Z,8.80
2019-03-13T01:36:48.543Z,12.30
2019-03-13T01:40:58.901Z,9.60
2019-03-13T01:45:09.480Z,11.87
2019-03-13T01:49:19.840Z,13.00
2019-03-13T01:53:30.779Z,10.73
2019-03-13T01:57:40.824Z,11.97
2019-03-13T02:01:51.396Z,9.40
2019-03-13T02:06:01.842Z,10.20
2019-03-13T02:10:13.202Z,10.90
2019-03-13T02:14:23.629Z,15.83
2019-03-13T02:18:36.522Z,17.83
2019-03-13T02:22:47.126Z,10.90
2019-03-13T02:26:57.909Z,11.20
2019-03-13T02:31:08.199Z,14.40
2019-03-13T02:35:18.711Z,16.73
2019-03-13T02:39:29.158Z,14.00
2019-03-13T02:43:39.878Z,10.03
2019-03-13T02:47:50.565Z,11.73
2019-03-13T02:52:02.286Z,9.27
2019-03-13T02:56:12.899Z,9.10
2019-03-13T03:00:30.293Z,11.83
2019-03-13T03:04:40.530Z,9.03
2019-03-13T03:08:51.036Z,12.00
2019-03-13T03:13:01.141Z,14.33
2019-03-13T03:17:12.625Z,8.63
2019-03-13T03:21:23.216Z,8.87
2019-03-13T03:25:32.785Z,9.30
2019-03-13T03:29:43.197Z,9.30
2019-03-13T03:34:04.854Z,10.70
2019-03-13T03:38:16.438Z,8.67
2019-03-13T03:42:26.636Z,12.80
2019-03-13T03:46:37.142Z,9.40
2019-03-13T03:50:48.134Z,9.90
2019-03-13T03:54:59.396Z,12.10
2019-03-13T03:59:10.121Z,7.30
2019-03-13T04:03:20.738Z,8.90
2019-03-13T04:07:31.401Z,13.33
2019-03-13T04:11:42.224Z,8.67
2019-03-13T04:15:52.723Z,9.43
2019-03-13T04:20:02.833Z,7.10
2019-03-13T04:24:13.633Z,12.10
2019-03-13T04:28:23.938Z,6.33
2019-03-13T04:32:34.871Z,7.60
2019-03-13T04:36:45.196Z,7.27
2019-03-13T04:40:56.229Z,7.33
2019-03-13T04:45:07.288Z,8.30
2019-03-13T04:49:18.895Z,6.83
2019-03-13T04:53:29.867Z,7.10
2019-03-13T04:57:39.983Z,12.83
2019-03-13T05:01:50.751Z,9.40
2019-03-13T05:06:08.011Z,6.37
2019-03-13T05:10:19.037Z,6.90
2019-03-13T05:14:32.562Z,5.77
2019-03-13T05:18:41.199Z,9.30
2019-03-13T05:22:51.473Z,6.93
2019-03-13T05:27:01.854Z,7.10
2019-03-13T05:31:12.315Z,5.37
2019-03-13T05:35:23.935Z,9.23
2019-03-13T05:39:34.933Z,6.30
2019-03-13T05:43:45.564Z,5.90
2019-03-13T05:47:56.305Z,5.67
2019-03-13T05:52:06.873Z,5.67
2019-03-13T05:56:17.685Z,6.60
2019-03-13T06:00:29.385Z,7.63
2019-03-13T06:04:39.745Z,7.23
2019-03-13T06:08:50.075Z,7.93
2019-03-13T06:13:00.519Z,6.83
2019-03-13T06:17:10.774Z,6.90
2019-03-13T06:21:21.216Z,5.53
2019-03-13T06:25:32.133Z,9.10
2019-03-13T06:29:42.590Z,5.80
2019-03-13T06:33:53.016Z,6.63
2019-03-13T06:38:03.701Z,6.87
2019-03-13T06:42:14.014Z,5.50
2019-03-13T06:46:24.484Z,8.97
2019-03-13T06:50:34.793Z,5.30
2019-03-13T06:54:45.953Z,5.23
2019-03-13T06:59:18.226Z,5.33
2019-03-13T07:03:47.821Z,4.77
2019-03-13T07:08:14.167Z,5.20
2019-03-13T07:12:42.365Z,4.60
2019-03-13T07:17:16.613Z,6.30
2019-03-13T07:21:44.037Z,7.53
2019-03-13T07:26:13.052Z,5.30
2019-03-13T07:30:45.177Z,4.97
2019-03-13T07:35:13.599Z,5.23
2019-03-13T07:39:35.328Z,6.77
2019-03-13T07:44:07.044Z,4.93
2019-03-13T07:48:35.358Z,6.07
2019-03-13T07:53:04.332Z,7.80
2019-03-13T07:57:29.140Z,5.40
2019-03-13T08:01:49.369Z,4.90
2019-03-13T08:06:16.361Z,7.40
2019-03-13T08:10:46.626Z,4.60
2019-03-13T08:15:13.588Z,8.00
2019-03-13T08:19:40.322Z,5.10
2019-03-13T08:24:21.118Z,6.80
2019-03-13T08:28:49.592Z,4.40
2019-03-13T08:33:08.494Z,7.20
2019-03-13T08:37:33.285Z,18.73
2019-03-13T08:42:10.193Z,6.57
2019-03-13T08:46:44.330Z,10.77
2019-03-13T08:51:16.367Z,10.43
2019-03-13T08:55:50.768Z,12.33
2019-03-13T09:00:17.064Z,8.63
2019-03-13T09:04:43.922Z,9.10
2019-03-13T09:09:10.620Z,8.60
2019-03-13T09:13:43.333Z,5.27
2019-03-13T09:18:18.412Z,5.77
2019-03-13T09:22:42.052Z,9.60
2019-03-13T09:27:08.674Z,6.40
2019-03-13T09:31:52.512Z,6.00
2019-03-13T09:36:30.268Z,5.03
2019-03-13T09:41:04.089Z,9.00
2019-03-13T09:45:30.820Z,5.53
2019-03-13T09:50:11.155Z,7.77
2019-03-13T09:54:31.226Z,9.80
2019-03-13T09:58:59.716Z,11.40
2019-03-13T10:03:21.835Z,9.10
2019-03-13T10:07:53.297Z,7.50
2019-03-13T10:12:19.806Z,7.33
2019-03-13T10:16:46.884Z,7.47
2019-03-13T10:21:18.524Z,5.10
2019-03-13T10:25:55.390Z,6.63
2019-03-13T10:30:38.675Z,5.83
2019-03-13T10:35:14.118Z,6.97
2019-03-13T10:39:42.291Z,9.00
2019-03-13T10:44:11.403Z,8.37
2019-03-13T10:48:27.231Z,12.33
2019-03-13T10:53:02.653Z,9.23
2019-03-13T10:57:24.199Z,11.83
2019-03-13T11:01:41.592Z,7.03
2019-03-13T11:06:16.027Z,6.20
2019-03-13T11:10:45.697Z,10.97
2019-03-13T11:15:19.509Z,6.50
2019-03-13T11:19:48.175Z,9.40
2019-03-13T11:24:15.784Z,8.50
2019-03-13T11:28:47.085Z,9.23
2019-03-13T11:33:09.230Z,8.20
2019-03-13T11:37:26.048Z,14.10
2019-03-13T11:41:55.887Z,5.90
2019-03-13T11:46:17.948Z,10.03
2019-03-13T11:50:49.826Z,9.00
2019-03-13T11:55:16.620Z,5.70
2019-03-13T11:59:43.774Z,7.47
2019-03-13T12:04:11.885Z,9.07
2019-03-13T12:08:34.926Z,11.27
2019-03-13T12:13:12.647Z,12.77
2019-03-13T12:17:39.186Z,12.07
2019-03-13T12:21:57.947Z,14.00
2019-03-13T12:26:20.286Z,8.67
2019-03-13T12:30:51.432Z,12.07
2019-03-13T12:35:37.778Z,11.33
2019-03-13T12:40:04.082Z,14.70
2019-03-13T12:44:24.387Z,9.07
2019-03-13T12:49:02.024Z,17.50
2019-03-13T12:53:37.186Z,8.40
2019-03-13T12:58:20.944Z,12.00
2019-03-13T13:02:49.869Z,13.23
2019-03-13T13:07:21.809Z,24.60
2019-03-13T13:11:51.303Z,22.80
2019-03-13T13:16:13.400Z,12.07
2019-03-13T13:20:24.241Z,14.83
2019-03-13T13:24:36.047Z,16.07
2019-03-13T13:28:47.275Z,13.10
2019-03-13T13:32:58.897Z,11.70
2019-03-13T13:37:09.715Z,9.30
2019-03-13T13:41:21.714Z,14.10
2019-03-13T13:45:49.880Z,8.83
2019-03-13T13:50:00.205Z,9.40
2019-03-13T13:54:10.910Z,14.00
2019-03-13T13:58:21.676Z,11.43
2019-03-13T14:02:32.471Z,10.83
2019-03-13T14:06:42.631Z,13.87
2019-03-13T14:10:53.347Z,19.40
2019-03-13T14:15:03.940Z,12.53
2019-03-13T14:19:15.413Z,11.47
2019-03-13T14:23:25.795Z,12.50
2019-03-13T14:27:36.601Z,23.30
2019-03-13T14:31:47.454Z,14.27
2019-03-13T14:35:58.864Z,11.47
2019-03-13T14:40:09.489Z,18.00
2019-03-13T14:44:20.347Z,14.77
2019-03-13T14:48:31.295Z,14.63
2019-03-13T14:52:42.092Z,24.43
2019-03-13T14:56:52.430Z,13.53
2019-03-13T15:01:03.269Z,20.50
2019-03-13T15:05:13.593Z,29.07
2019-03-13T15:09:24.175Z,35.90
2019-03-13T15:13:34.337Z,23.00
2019-03-13T15:17:44.556Z,20.80
2019-03-13T15:21:55.134Z,20.67
2019-03-13T15:26:05.546Z,36.73
2019-03-13T15:30:22.258Z,27.97
2019-03-13T15:34:32.743Z,23.20
2019-03-13T15:38:43.598Z,27.97
2019-03-13T15:42:56.292Z,22.00
2019-03-13T15:47:07.343Z,21.47
2019-03-13T15:51:18.878Z,25.97
2019-03-13T15:55:29.030Z,19.70
2019-03-13T15:59:39.534Z,21.57
2019-03-13T16:03:49.940Z,22.40
2019-03-13T16:08:00.536Z,16.73
2019-03-13T16:12:10.959Z,17.40
2019-03-13T16:16:21.805Z,22.30
2019-03-13T16:20:32.324Z,20.20
2019-03-13T16:24:43.095Z,25.07
2019-03-13T16:28:54.009Z,26.63
2019-03-13T16:33:04.833Z,26.20
2019-03-13T16:37:15.185Z,22.10
2019-03-13T16:41:26.165Z,24.43
2019-03-13T16:45:36.791Z,26.10
2019-03-13T16:49:47.717Z,20.07
2019-03-13T16:53:58.052Z,17.30
2019-03-13T16:58:08.987Z,18.67
2019-03-13T17:02:19.509Z,20.27
2019-03-13T17:06:30.215Z,17.20
2019-03-13T17:10:40.333Z,17.43
2019-03-13T17:14:52.002Z,14.63
2019-03-13T17:19:02.361Z,14.07
2019-03-13T17:23:13.530Z,22.17
2019-03-13T17:27:24.740Z,9.90
2019-03-13T17:31:36.128Z,9.37
2019-03-13T17:35:47.237Z,10.27
2019-03-13T17:39:57.875Z,12.23
2019-03-13T17:44:08.682Z,12.90
2019-03-13T17:48:19.575Z,11.70
2019-03-13T17:52:30.120Z,9.57
2019-03-13T17:56:40.237Z,11.87
2019-03-13T18:00:53.485Z,9.97
2019-03-13T18:05:03.236Z,7.60
2019-03-13T18:09:14.181Z,12.67
2019-03-13T18:13:24.297Z,16.70
2019-03-13T18:17:35.214Z,8.17
2019-03-13T18:21:47.210Z,14.93
2019-03-13T18:25:57.892Z,12.40
2019-03-13T18:30:08.994Z,11.27
2019-03-13T18:34:19.776Z,12.97
2019-03-13T18:38:30.819Z,11.80
2019-03-13T18:42:41.954Z,15.80
2019-03-13T18:46:53.047Z,13.87
2019-03-13T18:51:04.399Z,16.80
2019-03-13T18:55:15.810Z,14.20
2019-03-13T18:59:26.958Z,16.97
2019-03-13T19:03:37.729Z,13.53
2019-03-13T19:07:48.458Z,17.33
2019-03-13T19:11:59.085Z,9.10
2019-03-13T19:16:09.504Z,9.80
2019-03-13T19:20:21.336Z,12.53
2019-03-13T19:24:32.660Z,12.00
2019-03-13T19:28:43.221Z,10.13
2019-03-13T19:32:54.205Z,11.30
2019-03-13T19:37:04.594Z,12.67
2019-03-13T19:41:14.760Z,12.33
2019-03-13T19:45:27.919Z,11.90
2019-03-13T19:49:39.505Z,10.67
2019-03-13T19:53:51.576Z,10.83
2019-03-13T19:58:02.017Z,9.80
2019-03-13T20:02:12.404Z,11.57
2019-03-13T20:06:23.202Z,13.33
2019-03-13T20:10:34.287Z,8.97
2019-03-13T20:14:45.366Z,13.50
2019-03-13T20:18:56.169Z,7.70
2019-03-13T20:23:08.018Z,15.90
2019-03-13T20:27:20.842Z,13.80
2019-03-13T20:31:31.951Z,16.73
2019-03-13T20:35:42.570Z,12.10
2019-03-13T20:39:53.195Z,11.77
2019-03-13T20:44:04.012Z,8.93
2019-03-13T20:48:15.726Z,12.63
2019-03-13T20:52:26.019Z,10.43
2019-03-13T20:56:36.606Z,9.80
2019-03-13T21:00:47.543Z,10.13
2019-03-13T21:04:57.982Z,10.03
2019-03-13T21:09:09.717Z,8.17
2019-03-13T21:13:21.630Z,21.23
2019-03-13T21:17:32.393Z,8.80
2019-03-13T21:21:43.114Z,10.60
2019-03-13T21:25:55.649Z,14.37
2019-03-13T21:30:06.588Z,9.50
2019-03-13T21:34:17.777Z,8.40
2019-03-13T21:38:28.389Z,9.40
2019-03-13T21:42:38.888Z,11.50
2019-03-13T21:46:50.581Z,10.27
2019-03-13T21:51:01.403Z,8.00
2019-03-13T21:55:13.165Z,8.50
2019-03-13T21:59:24.607Z,7.93
2019-03-13T22:03:35.069Z,8.13
2019-03-13T22:07:46.045Z,7.40
2019-03-13T22:11:56.666Z,9.10
2019-03-13T22:16:07.135Z,10.97
2019-03-13T22:20:17.951Z,11.20
2019-03-13T22:24:28.629Z,8.70
2019-03-13T22:28:39.207Z,8.57
2019-03-13T22:32:50.262Z,8.90
2019-03-13T22:37:01.128Z,10.23
2019-03-13T22:41:12.229Z,9.53
2019-03-13T22:45:22.330Z,8.93
2019-03-13T22:49:33.046Z,12.23
2019-03-13T22:53:43.726Z,8.87
2019-03-13T22:57:54.035Z,7.53
2019-03-13T23:02:04.622Z,12.77
2019-03-13T23:06:15.428Z,13.83
2019-03-13T23:10:35.197Z,16.30
2019-03-13T23:14:47.348Z,15.40
2019-03-13T23:18:57.138Z,14.20
2019-03-13T23:23:07.671Z,12.47
2019-03-13T23:27:17.786Z,12.97
2019-03-13T23:31:28.766Z,10.33
2019-03-13T23:35:39.590Z,12.37
2019-03-13T23:39:50.670Z,15.13
2019-03-13T23:44:02.265Z,18.43
2019-03-13T23:48:13.489Z,13.97
2019-03-13T23:52:25.860Z,12.10
2019-03-13T23:56:35.916Z,16.10
